createdAt,value
2022-08-27T00:02:06.829Z,2.03
2022-08-27T00:04:36.939Z,1.83
2022-08-27T00:07:05.878Z,2.35
2022-08-27T00:09:33.773Z,1.75
2022-08-27T00:12:01.610Z,1.90
2022-08-27T00:14:30.252Z,2.10
2022-08-27T00:16:58.400Z,1.88
2022-08-27T00:19:26.464Z,2.35
2022-08-27T00:21:55.824Z,2.20
2022-08-27T00:24:23.921Z,2.22
2022-08-27T00:26:53.417Z,1.95
2022-08-27T00:29:21.672Z,2.15
2022-08-27T00:31:53.276Z,1.88
2022-08-27T00:34:23.943Z,1.88
2022-08-27T00:36:53.084Z,1.90
2022-08-27T00:39:22.446Z,2.33
2022-08-27T00:41:50.655Z,1.83
2022-08-27T00:44:18.482Z,2.58
2022-08-27T00:46:48.880Z,2.13
2022-08-27T00:49:20.850Z,2.15
2022-08-27T00:51:53.705Z,2.40
2022-08-27T00:54:23.438Z,2.50
2022-08-27T00:56:52.012Z,2.55
2022-08-27T00:59:22.936Z,2.38
2022-08-27T01:02:09.336Z,2.33
2022-08-27T01:04:39.677Z,2.50
2022-08-27T01:07:07.725Z,1.98
2022-08-27T01:09:37.805Z,2.22
2022-08-27T01:12:06.328Z,2.25
2022-08-27T01:14:34.402Z,2.20
2022-08-27T01:17:04.554Z,2.17
2022-08-27T01:19:37.961Z,2.10
2022-08-27T01:22:19.921Z,2.25
2022-08-27T01:24:53.601Z,2.22
2022-08-27T01:27:25.767Z,1.75
2022-08-27T01:29:54.049Z,1.98
2022-08-27T01:32:24.920Z,2.22
2022-08-27T01:34:53.810Z,2.20
2022-08-27T01:37:23.923Z,2.33
2022-08-27T01:39:55.156Z,1.67
2022-08-27T01:42:25.894Z,1.80
2022-08-27T01:44:57.615Z,1.83
2022-08-27T01:47:30.279Z,2.30
2022-08-27T01:49:59.808Z,2.03
2022-08-27T01:52:30.168Z,1.80
2022-08-27T01:54:59.501Z,1.92
2022-08-27T01:57:27.335Z,2.40
2022-08-27T02:00:03.211Z,1.60
2022-08-27T02:02:43.036Z,1.60
2022-08-27T02:05:14.446Z,1.60
2022-08-27T02:07:43.555Z,1.83
2022-08-27T02:10:19.439Z,1.75
2022-08-27T02:12:47.944Z,1.50
2022-08-27T02:15:17.088Z,1.85
2022-08-27T02:17:47.030Z,1.77
2022-08-27T02:22:50.682Z,1.75
2022-08-27T02:25:22.581Z,1.60
2022-08-27T02:27:51.569Z,1.58
2022-08-27T02:30:23.839Z,2.10
2022-08-27T02:32:53.026Z,1.92
2022-08-27T02:35:24.912Z,2.00
2022-08-27T02:37:55.741Z,1.90
2022-08-27T02:40:25.883Z,2.10
2022-08-27T02:42:53.974Z,2.00
2022-08-27T02:45:22.088Z,2.70
2022-08-27T02:47:50.030Z,2.83
2022-08-27T02:50:18.638Z,2.13
2022-08-27T02:52:46.799Z,2.40
2022-08-27T02:55:17.164Z,2.05
2022-08-27T02:57:47.044Z,2.17
2022-08-27T03:00:17.919Z,2.45
2022-08-27T03:02:45.809Z,2.42
2022-08-27T03:05:15.258Z,1.90
2022-08-27T03:07:44.357Z,2.28
2022-08-27T03:10:14.519Z,2.03
2022-08-27T03:12:42.845Z,2.25
2022-08-27T03:15:15.081Z,2.55
2022-08-27T03:18:00.967Z,1.95
2022-08-27T03:20:29.723Z,2.45
2022-08-27T03:22:57.647Z,2.47
2022-08-27T03:25:25.661Z,2.42
2022-08-27T03:27:53.744Z,2.20
2022-08-27T03:30:25.628Z,1.55
2022-08-27T03:32:53.918Z,2.70
2022-08-27T03:35:23.213Z,1.60
2022-08-27T03:37:51.506Z,1.70
2022-08-27T03:40:19.815Z,1.75
2022-08-27T03:42:47.922Z,2.00
2022-08-27T03:45:16.284Z,1.65
2022-08-27T03:47:45.419Z,1.85
2022-08-27T03:50:13.336Z,1.50
2022-08-27T03:52:41.317Z,1.95
2022-08-27T03:55:10.186Z,1.83
2022-08-27T03:57:38.112Z,1.50
2022-08-27T04:00:08.419Z,1.40
2022-08-27T04:02:36.175Z,1.77
2022-08-27T04:05:05.894Z,1.30
2022-08-27T04:07:34.111Z,1.88
2022-08-27T04:10:01.940Z,1.80
2022-08-27T04:12:29.663Z,1.42
2022-08-27T04:14:57.459Z,1.88
2022-08-27T04:17:25.225Z,1.63
2022-08-27T04:19:53.611Z,1.50
2022-08-27T04:22:23.593Z,1.70
2022-08-27T04:24:51.385Z,1.75
2022-08-27T04:27:20.572Z,1.50
2022-08-27T04:29:48.847Z,1.80
2022-08-27T04:32:19.214Z,1.48
2022-08-27T04:34:47.524Z,1.30
2022-08-27T04:37:15.245Z,1.40
2022-08-27T04:39:51.260Z,1.45
2022-08-27T04:42:20.061Z,1.70
2022-08-27T04:44:48.470Z,1.30
2022-08-27T04:47:16.642Z,1.50
2022-08-27T04:49:44.860Z,1.38
2022-08-27T04:52:12.725Z,1.10
2022-08-27T04:54:40.562Z,1.17
2022-08-27T04:57:09.979Z,1.25
2022-08-27T04:59:38.496Z,1.25
2022-08-27T05:02:09.209Z,1.10
2022-08-27T05:04:40.257Z,0.90
2022-08-27T05:07:10.142Z,1.10
2022-08-27T05:09:38.803Z,1.00
2022-08-27T05:12:08.013Z,1.27
2022-08-27T05:14:37.120Z,1.30
2022-08-27T05:17:05.156Z,1.23
2022-08-27T05:19:32.924Z,1.20
2022-08-27T05:22:00.721Z,1.08
2022-08-27T05:24:28.464Z,1.13
2022-08-27T05:26:56.251Z,1.17
2022-08-27T05:29:24.252Z,1.25
2022-08-27T05:31:53.377Z,1.40
2022-08-27T05:34:26.243Z,1.15
2022-08-27T05:36:54.819Z,1.20
2022-08-27T05:39:22.908Z,1.20
2022-08-27T05:41:57.303Z,1.23
2022-08-27T05:44:41.622Z,1.00
2022-08-27T05:47:11.352Z,1.50
2022-08-27T05:49:39.181Z,1.25
2022-08-27T05:52:10.589Z,1.50
2022-08-27T05:54:38.903Z,1.80
2022-08-27T05:57:06.875Z,1.15
2022-08-27T05:59:52.421Z,1.17
2022-08-27T06:02:21.644Z,1.20
2022-08-27T06:04:49.635Z,1.27
2022-08-27T06:07:17.686Z,1.23
2022-08-27T06:09:45.605Z,1.58
2022-08-27T06:12:13.527Z,1.60
2022-08-27T06:14:41.420Z,1.25
2022-08-27T06:17:10.760Z,1.45
2022-08-27T06:19:42.278Z,1.13
2022-08-27T06:22:11.123Z,1.30
2022-08-27T06:24:40.762Z,1.55
2022-08-27T06:27:11.262Z,1.52
2022-08-27T06:29:39.584Z,1.30
2022-08-27T06:32:09.112Z,1.20
2022-08-27T06:34:39.132Z,1.13
2022-08-27T06:37:07.537Z,1.00
2022-08-27T06:39:37.547Z,1.38
2022-08-27T06:42:06.307Z,1.33
2022-08-27T06:44:35.144Z,1.40
2022-08-27T06:47:07.463Z,1.27
2022-08-27T06:49:43.819Z,1.05
2022-08-27T06:52:14.889Z,1.40
2022-08-27T06:54:42.946Z,1.52
2022-08-27T06:57:12.471Z,1.55
2022-08-27T06:59:43.470Z,1.40
2022-08-27T07:02:12.768Z,1.75
2022-08-27T07:04:42.384Z,1.10
2022-08-27T07:07:13.661Z,1.40
2022-08-27T07:09:41.825Z,1.73
2022-08-27T07:12:09.732Z,1.35
2022-08-27T07:14:38.597Z,1.70
2022-08-27T07:17:11.257Z,1.58
2022-08-27T07:19:45.610Z,1.23
2022-08-27T07:22:15.788Z,1.10
2022-08-27T07:24:45.798Z,1.95
2022-08-27T07:27:15.469Z,1.60
2022-08-27T07:29:43.376Z,1.50
2022-08-27T07:32:11.175Z,1.70
2022-08-27T07:34:38.989Z,1.95
2022-08-27T07:37:08.106Z,1.95
2022-08-27T07:39:35.887Z,1.65
2022-08-27T07:42:21.238Z,1.60
2022-08-27T07:44:49.880Z,1.30
2022-08-27T07:47:18.010Z,2.00
2022-08-27T07:49:45.758Z,1.50
2022-08-27T07:52:18.150Z,1.98
2022-08-27T07:54:46.225Z,1.52
2022-08-27T07:57:14.007Z,1.65
2022-08-27T07:59:41.750Z,1.83
2022-08-27T08:02:09.546Z,1.52
2022-08-27T08:04:37.455Z,1.40
2022-08-27T08:07:05.278Z,1.40
2022-08-27T08:09:37.404Z,1.40
2022-08-27T08:12:06.265Z,1.55
2022-08-27T08:14:34.264Z,1.80
2022-08-27T08:17:03.240Z,1.40
2022-08-27T08:19:34.375Z,1.65
2022-08-27T08:22:05.763Z,1.27
2022-08-27T08:24:37.328Z,1.75
2022-08-27T08:27:15.614Z,1.55
2022-08-27T08:29:49.442Z,1.92
2022-08-27T08:32:21.402Z,1.95
2022-08-27T08:34:49.196Z,1.80
2022-08-27T08:37:16.961Z,1.80
2022-08-27T08:39:46.167Z,1.63
2022-08-27T08:42:31.354Z,1.63
2022-08-27T08:45:03.607Z,1.60
2022-08-27T08:47:38.071Z,2.00
2022-08-27T08:50:09.588Z,1.55
2022-08-27T08:52:48.113Z,1.92
2022-08-27T08:55:29.475Z,2.15
2022-08-27T08:58:10.651Z,2.25
2022-08-27T09:00:40.405Z,1.80
2022-08-27T09:03:08.470Z,1.73
2022-08-27T09:05:44.090Z,2.28
2022-08-27T09:08:33.394Z,1.85
2022-08-27T09:11:11.977Z,1.52
2022-08-27T09:13:44.513Z,1.90
2022-08-27T09:16:12.362Z,1.73
2022-08-27T09:18:42.270Z,1.58
2022-08-27T09:21:27.671Z,1.70
2022-08-27T09:24:08.076Z,1.95
2022-08-27T09:26:40.605Z,2.05
2022-08-27T09:29:19.798Z,2.63
2022-08-27T09:31:54.009Z,1.77
2022-08-27T09:34:22.064Z,1.70
2022-08-27T09:36:59.246Z,1.80
2022-08-27T09:39:33.280Z,2.08
2022-08-27T09:42:03.760Z,1.80
2022-08-27T09:44:32.586Z,1.45
2022-08-27T09:47:04.144Z,1.58
2022-08-27T09:49:34.588Z,2.10
2022-08-27T09:52:03.090Z,1.65
2022-08-27T09:54:41.878Z,1.60
2022-08-27T09:57:13.564Z,1.42
2022-08-27T09:59:50.903Z,1.58
2022-08-27T10:02:21.304Z,1.70
2022-08-27T10:04:52.061Z,1.77
2022-08-27T10:07:32.557Z,1.60
2022-08-27T10:10:05.688Z,1.73
2022-08-27T10:12:52.354Z,2.33
2022-08-27T10:15:20.653Z,1.52
2022-08-27T10:17:59.398Z,1.95
2022-08-27T10:20:39.002Z,2.58
2022-08-27T10:23:23.311Z,1.55
2022-08-27T10:26:02.558Z,2.00
2022-08-27T10:28:45.658Z,2.03
2022-08-27T10:31:31.196Z,1.73
2022-08-27T10:34:12.329Z,1.90
2022-08-27T10:36:51.599Z,1.95
2022-08-27T10:39:31.951Z,1.23
2022-08-27T10:42:14.837Z,1.42
2022-08-27T10:44:58.488Z,1.65
2022-08-27T10:47:48.747Z,1.30
2022-08-27T10:50:25.234Z,1.80
2022-08-27T10:53:00.499Z,1.35
2022-08-27T10:55:32.899Z,1.63
2022-08-27T10:58:17.174Z,1.55
2022-08-27T11:00:52.487Z,1.58
2022-08-27T11:03:27.233Z,1.10
2022-08-27T11:06:04.239Z,1.00
2022-08-27T11:08:39.541Z,1.15
2022-08-27T11:11:57.229Z,1.20
2022-08-27T11:14:01.264Z,1.10
2022-08-27T11:16:45.483Z,1.00
2022-08-27T11:19:19.189Z,1.25
2022-08-27T11:22:01.532Z,1.15
2022-08-27T11:24:46.064Z,0.75
2022-08-27T11:27:22.779Z,0.90
2022-08-27T11:30:00.048Z,0.90
2022-08-27T11:32:42.595Z,0.50
2022-08-27T11:35:20.781Z,1.23
2022-08-27T11:38:09.681Z,0.80
2022-08-27T11:40:49.504Z,0.88
2022-08-27T11:43:23.216Z,0.60
2022-08-27T11:45:58.358Z,0.88
2022-08-27T11:48:30.388Z,0.85
2022-08-27T11:51:02.021Z,0.47
2022-08-27T11:53:34.605Z,0.93
2022-08-27T11:56:35.804Z,0.60
2022-08-27T11:59:11.405Z,0.50
2022-08-27T12:01:40.973Z,0.70
2022-08-27T12:04:34.344Z,0.40
2022-08-27T12:07:05.638Z,0.95
2022-08-27T12:09:54.191Z,0.80
2022-08-27T12:12:29.054Z,1.02
2022-08-27T12:15:07.664Z,0.80
2022-08-27T12:17:42.096Z,0.70
2022-08-27T12:20:22.313Z,0.80
2022-08-27T12:23:30.199Z,0.65
2022-08-27T12:26:02.650Z,0.82
2022-08-27T12:28:30.537Z,0.77
2022-08-27T12:30:58.633Z,0.60
2022-08-27T12:33:32.933Z,0.82
2022-08-27T12:36:17.513Z,0.70
2022-08-27T12:38:58.292Z,0.60
2022-08-27T12:41:32.563Z,0.60
2022-08-27T12:44:14.469Z,0.80
2022-08-27T12:46:53.860Z,0.60
2022-08-27T12:49:38.741Z,0.47
2022-08-27T12:52:21.572Z,0.50
2022-08-27T12:54:59.716Z,0.77
2022-08-27T12:57:37.277Z,0.70
2022-08-27T13:00:12.445Z,0.70
2022-08-27T13:03:14.393Z,0.50
2022-08-27T13:05:45.385Z,0.70
2022-08-27T13:08:22.835Z,0.80
2022-08-27T13:10:51.365Z,0.60
2022-08-27T13:13:25.419Z,0.68
2022-08-27T13:15:56.586Z,0.55
2022-08-27T13:18:29.619Z,0.82
2022-08-27T13:21:04.383Z,0.98
2022-08-27T13:23:35.349Z,0.50
2022-08-27T13:26:07.363Z,0.32
2022-08-27T13:28:37.571Z,0.57
2022-08-27T13:31:07.007Z,0.47
2022-08-27T13:33:39.683Z,0.70
2022-08-27T13:36:09.562Z,0.57
2022-08-27T13:38:42.535Z,0.60
2022-08-27T13:41:22.456Z,0.70
2022-08-27T13:43:50.801Z,0.43
2022-08-27T13:46:20.984Z,0.90
2022-08-27T13:48:51.674Z,0.70
2022-08-27T13:51:26.410Z,0.55
2022-08-27T13:54:13.161Z,0.60
2022-08-27T13:56:56.052Z,0.50
2022-08-27T13:59:26.611Z,0.38
2022-08-27T14:02:00.469Z,0.77
2022-08-27T14:04:36.460Z,0.55
2022-08-27T14:07:10.706Z,0.40
2022-08-27T14:09:51.283Z,0.55
2022-08-27T14:12:32.933Z,0.50
2022-08-27T14:15:19.330Z,0.52
2022-08-27T14:17:47.495Z,0.73
2022-08-27T14:20:16.993Z,0.77
2022-08-27T14:22:45.434Z,0.52
2022-08-27T14:25:16.304Z,0.80
2022-08-27T14:27:54.135Z,0.82
2022-08-27T14:30:29.290Z,0.73
2022-08-27T14:33:00.245Z,0.50
2022-08-27T14:35:29.264Z,0.70
2022-08-27T14:37:57.873Z,0.43
2022-08-27T14:40:27.238Z,0.70
2022-08-27T14:42:55.235Z,0.95
2022-08-27T14:45:24.033Z,0.80
2022-08-27T14:47:52.522Z,0.60
2022-08-27T14:50:21.750Z,0.43
2022-08-27T14:52:50.209Z,0.60
2022-08-27T14:55:18.262Z,0.47
2022-08-27T14:57:48.049Z,0.68
2022-08-27T15:00:16.266Z,0.63
2022-08-27T15:02:48.469Z,0.47
2022-08-27T15:05:17.571Z,0.80
2022-08-27T15:07:48.042Z,0.50
2022-08-27T15:10:16.267Z,0.35
2022-08-27T15:12:44.722Z,0.40
2022-08-27T15:15:15.429Z,0.30
2022-08-27T15:17:43.919Z,0.63
2022-08-27T15:20:18.925Z,0.93
2022-08-27T15:22:49.292Z,0.40
2022-08-27T15:25:17.765Z,0.60
2022-08-27T15:27:45.653Z,0.75
2022-08-27T15:30:19.093Z,0.80
2022-08-27T15:32:49.071Z,0.82
2022-08-27T15:35:20.694Z,0.50
2022-08-27T15:37:48.685Z,0.40
2022-08-27T15:40:18.115Z,0.85
2022-08-27T15:42:47.172Z,0.60
2022-08-27T15:45:17.122Z,0.63
2022-08-27T15:47:44.958Z,0.60
2022-08-27T15:50:13.072Z,0.40
2022-08-27T15:52:42.967Z,0.70
2022-08-27T15:55:15.998Z,0.77
2022-08-27T15:57:43.976Z,0.50
2022-08-27T16:00:14.603Z,0.85
2022-08-27T16:02:45.283Z,0.85
2022-08-27T16:05:17.822Z,0.60
2022-08-27T16:07:46.150Z,0.30
2022-08-27T16:10:14.841Z,0.60
2022-08-27T16:12:42.737Z,0.60
2022-08-27T16:15:11.193Z,1.10
2022-08-27T16:17:39.431Z,0.70
2022-08-27T16:20:11.172Z,0.75
2022-08-27T16:22:39.349Z,0.60
2022-08-27T16:25:14.114Z,0.73
2022-08-27T16:27:44.322Z,1.00
2022-08-27T16:30:12.897Z,0.80
2022-08-27T16:32:41.271Z,0.52
2022-08-27T16:35:10.991Z,0.57
2022-08-27T16:37:38.792Z,0.57
2022-08-27T16:40:07.349Z,1.00
2022-08-27T16:42:57.978Z,0.80
2022-08-27T16:45:27.220Z,0.57
2022-08-27T16:48:24.210Z,0.68
2022-08-27T16:50:53.733Z,0.80
2022-08-27T16:53:22.882Z,0.50
2022-08-27T16:55:51.843Z,0.60
2022-08-27T16:58:28.844Z,0.70
2022-08-27T17:01:00.068Z,1.00
2022-08-27T17:03:30.652Z,1.15
2022-08-27T17:05:59.904Z,0.70
2022-08-27T17:08:30.494Z,1.10
2022-08-27T17:10:58.683Z,0.73
2022-08-27T17:13:29.337Z,0.60
2022-08-27T17:15:57.943Z,0.90
2022-08-27T17:18:28.154Z,0.90
2022-08-27T17:20:57.952Z,0.50
2022-08-27T17:23:32.779Z,0.73
2022-08-27T17:26:00.996Z,0.82
2022-08-27T17:28:28.795Z,0.93
2022-08-27T17:30:57.795Z,0.95
2022-08-27T17:33:30.787Z,0.70
2022-08-27T17:35:59.244Z,0.70
2022-08-27T17:38:34.074Z,0.65
2022-08-27T17:41:07.789Z,0.73
2022-08-27T17:43:36.061Z,0.60
2022-08-27T17:46:07.357Z,0.80
2022-08-27T17:48:35.281Z,0.88
2022-08-27T17:51:10.564Z,0.80
2022-08-27T17:53:59.950Z,0.50
2022-08-27T17:56:31.657Z,0.85
2022-08-27T17:58:59.746Z,1.35
2022-08-27T18:01:33.650Z,1.08
2022-08-27T18:04:02.146Z,0.73
2022-08-27T18:06:30.292Z,0.90
2022-08-27T18:09:05.770Z,0.90
2022-08-27T18:11:41.316Z,0.90
2022-08-27T18:14:09.603Z,0.68
2022-08-27T18:16:40.325Z,0.80
2022-08-27T18:19:08.668Z,1.02
2022-08-27T18:21:37.387Z,0.80
2022-08-27T18:24:16.119Z,0.85
2022-08-27T18:26:47.407Z,0.60
2022-08-27T18:29:24.175Z,0.80
2022-08-27T18:31:56.296Z,0.80
2022-08-27T18:34:27.753Z,0.80
2022-08-27T18:37:01.924Z,1.02
2022-08-27T18:39:32.631Z,0.90
2022-08-27T18:42:04.002Z,0.57
2022-08-27T18:44:37.176Z,1.10
2022-08-27T18:47:06.090Z,1.00
2022-08-27T18:49:37.212Z,0.70
2022-08-27T18:52:06.300Z,0.90
2022-08-27T18:54:36.540Z,0.75
2022-08-27T18:57:04.643Z,0.85
2022-08-27T18:59:32.797Z,0.80
2022-08-27T19:02:05.231Z,1.20
2022-08-27T19:04:35.086Z,0.80
2022-08-27T19:07:03.515Z,0.70
2022-08-27T19:09:32.050Z,0.82
2022-08-27T19:12:07.421Z,0.80
2022-08-27T19:14:35.621Z,1.20
2022-08-27T19:17:04.548Z,1.23
2022-08-27T19:19:34.160Z,0.70
2022-08-27T19:22:05.849Z,1.00
2022-08-27T19:24:37.451Z,1.40
2022-08-27T19:27:09.679Z,0.85
2022-08-27T19:29:37.578Z,0.82
2022-08-27T19:32:07.113Z,1.10
2022-08-27T19:34:38.376Z,1.45
2022-08-27T19:37:07.786Z,1.00
2022-08-27T19:39:37.716Z,0.73
2022-08-27T19:42:06.059Z,0.75
2022-08-27T19:44:35.547Z,1.02
2022-08-27T19:47:03.497Z,1.13
2022-08-27T19:49:31.259Z,1.20
2022-08-27T19:51:59.050Z,1.38
2022-08-27T19:54:32.659Z,1.08
2022-08-27T19:57:01.758Z,1.20
2022-08-27T19:59:29.831Z,1.10
2022-08-27T20:01:59.036Z,1.20
2022-08-27T20:04:30.463Z,0.95
2022-08-27T20:07:00.734Z,1.05
2022-08-27T20:09:28.542Z,0.80
2022-08-27T20:11:56.388Z,0.80
2022-08-27T20:14:24.224Z,1.05
2022-08-27T20:16:52.516Z,1.17
2022-08-27T20:19:23.213Z,1.60
2022-08-27T20:21:51.292Z,1.30
2022-08-27T20:24:20.021Z,1.50
2022-08-27T20:26:47.886Z,0.90
2022-08-27T20:29:22.377Z,1.13
2022-08-27T20:32:01.186Z,1.20
2022-08-27T20:34:32.452Z,0.90
2022-08-27T20:37:01.807Z,0.68
2022-08-27T20:39:29.606Z,1.20
2022-08-27T20:41:57.395Z,0.80
2022-08-27T20:44:25.213Z,1.20
2022-08-27T20:46:56.042Z,1.77
2022-08-27T20:49:23.852Z,0.70
2022-08-27T20:52:02.738Z,0.98
2022-08-27T20:54:33.757Z,0.90
2022-08-27T20:57:02.400Z,1.07
2022-08-27T20:59:48.271Z,1.27
2022-08-27T21:02:17.438Z,1.17
2022-08-27T21:04:47.095Z,1.33
2022-08-27T21:07:18.278Z,0.90
2022-08-27T21:09:56.847Z,1.10
2022-08-27T21:12:26.350Z,0.90
2022-08-27T21:14:56.172Z,1.30
2022-08-27T21:17:28.940Z,1.40
2022-08-27T21:19:59.556Z,0.97
2022-08-27T21:22:34.914Z,1.43
2022-08-27T21:25:02.860Z,1.20
2022-08-27T21:27:30.701Z,1.00
2022-08-27T21:29:59.980Z,0.88
2022-08-27T21:32:27.889Z,1.10
2022-08-27T21:34:55.690Z,1.23
2022-08-27T21:37:23.766Z,1.10
2022-08-27T21:39:52.930Z,1.00
2022-08-27T21:42:21.035Z,0.90
2022-08-27T21:44:49.367Z,1.00
2022-08-27T21:47:17.452Z,0.80
2022-08-27T21:49:45.220Z,1.67
2022-08-27T21:52:12.988Z,1.30
2022-08-27T21:54:43.922Z,1.37
2022-08-27T21:57:15.517Z,1.33
2022-08-27T21:59:45.224Z,1.10
2022-08-27T22:02:38.822Z,1.00
2022-08-27T22:05:08.736Z,1.53
2022-08-27T22:07:36.857Z,1.30
2022-08-27T22:10:06.624Z,0.70
2022-08-27T22:12:36.208Z,1.10
2022-08-27T22:15:05.548Z,0.97
2022-08-27T22:17:33.379Z,1.42
2022-08-27T22:20:01.206Z,1.50
2022-08-27T22:22:30.466Z,1.40
2022-08-27T22:24:58.966Z,1.30
2022-08-27T22:27:27.569Z,1.37
2022-08-27T22:29:56.791Z,1.13
2022-08-27T22:32:24.673Z,0.70
2022-08-27T22:34:52.524Z,0.80
2022-08-27T22:37:20.425Z,1.40
2022-08-27T22:39:48.183Z,0.90
2022-08-27T22:42:18.324Z,1.13
2022-08-27T22:44:46.416Z,1.53
2022-08-27T22:47:15.956Z,1.17
2022-08-27T22:49:45.638Z,0.90
2022-08-27T22:52:14.810Z,0.90
2022-08-27T22:54:42.639Z,0.90
2022-08-27T22:57:10.759Z,1.40
2022-08-27T22:59:40.004Z,1.00
2022-08-27T23:02:09.506Z,1.37
2022-08-27T23:04:54.532Z,0.97
2022-08-27T23:07:23.391Z,1.07
2022-08-27T23:09:51.236Z,1.10
2022-08-27T23:12:25.970Z,1.07
2022-08-27T23:14:53.929Z,1.20
2022-08-27T23:17:22.055Z,1.20
2022-08-27T23:19:51.284Z,0.90
2022-08-27T23:22:19.263Z,0.90
2022-08-27T23:25:04.579Z,0.98
2022-08-27T23:27:35.233Z,1.13
2022-08-27T23:30:05.375Z,0.93
2022-08-27T23:32:36.537Z,0.90
2022-08-27T23:35:06.504Z,1.00
2022-08-27T23:37:39.720Z,0.90
2022-08-27T23:40:09.903Z,0.90
2022-08-27T23:42:38.277Z,1.07
2022-08-27T23:45:08.584Z,1.23
2022-08-27T23:47:37.026Z,0.83
2022-08-27T23:50:10.544Z,0.97
2022-08-27T23:52:41.664Z,1.20
2022-08-27T23:55:10.980Z,1.00
2022-08-27T23:57:39.722Z,1.07
